createdAt,value
2022-12-25T00:15:08.584Z,100814.45
2022-12-25T00:45:11.834Z,100797.92
2022-12-25T01:15:15.029Z,100823.83
2022-12-25T01:45:18.444Z,100866.19
2022-12-25T02:15:21.396Z,100870.45
2022-12-25T02:45:24.848Z,100859.29
2022-12-25T03:15:27.989Z,100876.48
2022-12-25T03:45:31.142Z,100901.46
2022-12-25T04:15:34.524Z,100903.27
2022-12-25T04:45:37.954Z,100938.70
2022-12-25T05:15:43.297Z,100952.50
2022-12-25T05:45:47.003Z,101009.70
2022-12-25T06:15:50.872Z,101039.97
2022-12-25T06:45:54.357Z,101078.88
2022-12-25T07:15:58.698Z,101093.63
2022-12-25T07:46:02.595Z,101079.83
2022-12-25T08:16:06.282Z,101120.47
2022-12-25T08:46:09.924Z,101151.66
2022-12-25T09:16:13.474Z,101149.06
2022-12-25T09:46:16.388Z,101170.67
2022-12-25T10:16:20.261Z,101147.33
2022-12-25T10:46:23.270Z,101120.50
2022-12-25T11:16:27.887Z,101130.86
2022-12-25T11:46:31.008Z,101124.80
2022-12-25T12:16:35.592Z,101099.72
2022-12-25T12:46:38.516Z,101082.39
2022-12-25T13:16:42.702Z,101076.38
2022-12-25T13:46:45.502Z,101054.79
2022-12-25T14:16:50.032Z,101033.15
2022-12-25T14:46:52.885Z,101053.94
2022-12-25T15:16:56.991Z,101017.64
2022-12-25T15:46:59.939Z,101041.83
2022-12-25T16:17:02.883Z,100992.59
2022-12-25T16:47:06.528Z,100972.72
2022-12-25T17:17:10.460Z,100943.31
2022-12-25T17:47:13.266Z,100898.39
2022-12-25T18:17:17.994Z,100874.17
2022-12-25T18:47:20.870Z,100813.66
2022-12-25T19:17:31.858Z,100739.31
2022-12-25T19:47:35.311Z,100693.53
2022-12-25T20:17:39.704Z,100673.65
2022-12-25T20:47:42.627Z,100652.75
2022-12-25T21:17:45.691Z,100619.02
2022-12-25T21:48:01.606Z,100593.09
2022-12-25T22:18:06.515Z,100504.06
2022-12-25T22:48:09.672Z,100488.42
2022-12-25T23:18:12.622Z,100440.54
2022-12-25T23:48:16.168Z,100410.05
